createdAt,value
2022-11-17T00:01:30.403Z,79.50
2022-11-17T00:03:58.424Z,74.67
2022-11-17T00:06:26.490Z,74.95
2022-11-17T00:08:54.481Z,76.85
2022-11-17T00:11:22.528Z,71.39
2022-11-17T00:14:09.487Z,70.03
2022-11-17T00:16:37.496Z,69.61
2022-11-17T00:19:23.488Z,71.92
2022-11-17T00:21:51.548Z,69.15
2022-11-17T00:24:19.600Z,70.03
2022-11-17T00:27:01.464Z,71.94
2022-11-17T00:29:31.612Z,72.10
2022-11-17T00:32:17.245Z,74.61
2022-11-17T00:34:45.467Z,74.80
2022-11-17T00:37:14.632Z,73.88
2022-11-17T00:39:42.707Z,72.49
2022-11-17T00:42:10.727Z,72.82
2022-11-17T00:44:40.098Z,71.55
2022-11-17T00:47:08.193Z,73.54
2022-11-17T00:49:36.835Z,76.57
2022-11-17T00:52:05.214Z,76.53
2022-11-17T00:54:33.309Z,76.21
2022-11-17T00:57:01.380Z,72.66
2022-11-17T00:59:29.414Z,75.53
2022-11-17T01:01:59.030Z,78.24
2022-11-17T01:04:27.130Z,77.31
2022-11-17T01:06:55.230Z,73.37
2022-11-17T01:09:24.963Z,73.38
2022-11-17T01:11:54.230Z,73.30
2022-11-17T01:14:25.770Z,76.00
2022-11-17T01:16:54.608Z,74.39
2022-11-17T01:19:24.774Z,76.26
2022-11-17T01:21:53.117Z,72.57
2022-11-17T01:24:21.208Z,72.55
2022-11-17T01:26:50.688Z,72.21
2022-11-17T01:29:19.195Z,74.15
2022-11-17T01:31:52.046Z,77.07
2022-11-17T01:34:20.300Z,75.44
2022-11-17T01:37:15.785Z,72.14
2022-11-17T01:39:44.241Z,70.64
2022-11-17T01:42:15.867Z,71.11
2022-11-17T01:44:58.883Z,72.24
2022-11-17T01:47:33.958Z,74.93
2022-11-17T01:50:07.473Z,76.12
2022-11-17T01:52:39.223Z,75.38
2022-11-17T01:55:09.963Z,74.54
2022-11-17T01:57:42.478Z,74.60
2022-11-17T02:00:12.398Z,76.88
2022-11-17T02:02:42.363Z,76.83
2022-11-17T02:05:21.470Z,78.15
2022-11-17T02:07:53.432Z,77.01
2022-11-17T02:10:22.102Z,79.89
2022-11-17T02:12:50.794Z,80.10
2022-11-17T02:15:18.808Z,81.35
2022-11-17T02:17:46.875Z,83.37
2022-11-17T02:20:18.072Z,84.72
2022-11-17T02:23:26.435Z,88.06
2022-11-17T02:26:31.885Z,90.83
2022-11-17T02:29:07.370Z,90.72
2022-11-17T02:31:41.573Z,93.16
2022-11-17T02:34:24.995Z,93.50
2022-11-17T02:37:00.304Z,93.58
2022-11-17T02:39:37.533Z,94.32
2022-11-17T02:42:11.467Z,95.80
2022-11-17T02:44:45.538Z,99.69
2022-11-17T02:47:18.253Z,100.00
2022-11-17T02:49:51.622Z,100.00
2022-11-17T02:52:21.509Z,99.86
2022-11-17T02:54:49.610Z,99.59
2022-11-17T02:57:30.597Z,98.79
2022-11-17T03:00:01.680Z,98.46
2022-11-17T03:02:41.582Z,96.46
2022-11-17T03:05:16.738Z,96.48
2022-11-17T03:08:01.937Z,96.14
2022-11-17T03:10:39.311Z,97.49
2022-11-17T03:13:13.850Z,97.48
2022-11-17T03:15:52.414Z,98.42
2022-11-17T03:18:24.782Z,94.68
2022-11-17T03:21:06.449Z,91.50
2022-11-17T03:23:40.711Z,86.31
2022-11-17T03:26:13.626Z,83.39
2022-11-17T03:28:44.072Z,85.55
2022-11-17T03:31:16.467Z,84.82
2022-11-17T03:33:48.310Z,82.98
2022-11-17T03:36:19.739Z,84.25
2022-11-17T03:38:53.093Z,81.45
2022-11-17T03:41:23.914Z,81.80
2022-11-17T03:43:55.824Z,83.66
2022-11-17T03:46:28.027Z,82.49
2022-11-17T03:49:00.731Z,82.04
2022-11-17T03:51:31.304Z,80.96
2022-11-17T03:53:59.341Z,79.81
2022-11-17T03:56:36.343Z,80.93
2022-11-17T03:59:10.710Z,83.36
2022-11-17T04:01:40.374Z,83.20
2022-11-17T04:04:08.366Z,82.83
2022-11-17T04:06:36.516Z,83.96
2022-11-17T04:09:04.547Z,85.57
2022-11-17T04:11:52.706Z,89.17
2022-11-17T04:14:38.012Z,92.72
2022-11-17T04:17:07.508Z,96.43
2022-11-17T04:19:35.497Z,98.40
2022-11-17T04:22:03.510Z,97.09
2022-11-17T04:24:31.591Z,97.46
2022-11-17T04:27:31.309Z,99.15
2022-11-17T04:29:59.347Z,99.52
2022-11-17T04:32:28.813Z,100.00
2022-11-17T04:34:56.764Z,100.00
2022-11-17T04:37:24.864Z,100.00
2022-11-17T04:39:52.884Z,100.00
2022-11-17T04:42:19.908Z,99.65
2022-11-17T04:44:47.899Z,99.68
2022-11-17T04:47:15.991Z,99.58
2022-11-17T04:49:45.436Z,100.00
2022-11-17T04:52:13.446Z,100.00
2022-11-17T04:54:41.539Z,100.00
2022-11-17T04:57:09.613Z,100.00
2022-11-17T04:59:37.943Z,100.00
2022-11-17T05:02:06.492Z,100.00
2022-11-17T05:04:51.706Z,100.00
2022-11-17T05:07:21.244Z,100.00
2022-11-17T05:09:49.371Z,100.00
2022-11-17T05:12:34.774Z,100.00
2022-11-17T05:15:03.039Z,100.00
2022-11-17T05:17:30.068Z,100.00
2022-11-17T05:19:58.468Z,100.00
2022-11-17T05:22:45.244Z,100.00
2022-11-17T05:25:13.357Z,100.00
2022-11-17T05:27:41.405Z,100.00
2022-11-17T05:30:10.853Z,100.00
2022-11-17T05:32:38.881Z,100.00
2022-11-17T05:35:07.976Z,100.00
2022-11-17T05:37:37.416Z,100.00
2022-11-17T05:40:06.189Z,100.00
2022-11-17T05:42:35.501Z,100.00
2022-11-17T05:45:03.512Z,100.00
2022-11-17T05:47:31.585Z,100.00
2022-11-17T05:49:59.546Z,100.00
2022-11-17T05:52:27.611Z,100.00
2022-11-17T05:54:57.048Z,100.00
2022-11-17T05:57:32.200Z,100.00
2022-11-17T06:00:05.134Z,100.00
2022-11-17T06:02:39.372Z,100.00
2022-11-17T06:05:08.885Z,100.00
2022-11-17T06:07:38.003Z,100.00
2022-11-17T06:10:08.182Z,100.00
2022-11-17T06:12:36.304Z,100.00
2022-11-17T06:15:04.547Z,100.00
2022-11-17T06:17:37.173Z,100.00
2022-11-17T06:20:09.096Z,100.00
2022-11-17T06:22:37.744Z,100.00
2022-11-17T06:25:09.677Z,100.00
2022-11-17T06:27:38.960Z,100.00
2022-11-17T06:30:08.204Z,100.00
2022-11-17T06:32:39.070Z,100.00
2022-11-17T06:35:09.972Z,100.00
2022-11-17T06:37:38.122Z,100.00
2022-11-17T06:40:07.067Z,100.00
2022-11-17T06:42:54.072Z,100.00
2022-11-17T06:45:22.178Z,100.00
2022-11-17T06:47:50.196Z,100.00
2022-11-17T06:50:18.635Z,100.00
2022-11-17T06:52:46.688Z,100.00
2022-11-17T06:55:14.683Z,100.00
2022-11-17T06:57:46.610Z,100.00
2022-11-17T07:00:19.547Z,100.00
2022-11-17T07:02:47.609Z,100.00
2022-11-17T07:05:15.688Z,100.00
2022-11-17T07:07:43.729Z,100.00
2022-11-17T07:10:11.960Z,100.00
2022-11-17T07:12:39.969Z,100.00
2022-11-17T07:15:10.253Z,100.00
2022-11-17T07:17:49.993Z,100.00
2022-11-17T07:20:19.358Z,100.00
2022-11-17T07:22:48.788Z,100.00
2022-11-17T07:25:23.282Z,100.00
2022-11-17T07:28:12.002Z,100.00
2022-11-17T07:30:41.519Z,100.00
2022-11-17T07:33:09.659Z,100.00
2022-11-17T07:49:28.918Z,100.00
2022-11-17T07:58:39.689Z,100.00
2022-11-17T08:01:45.309Z,100.00
2022-11-17T08:04:30.850Z,100.00
2022-11-17T08:10:05.829Z,100.00
2022-11-17T08:13:02.744Z,100.00
2022-11-17T08:15:39.455Z,100.00
2022-11-17T08:18:36.876Z,100.00
2022-11-17T08:21:19.320Z,100.00
2022-11-17T08:33:19.248Z,100.00
2022-11-17T08:35:47.695Z,100.00
2022-11-17T08:44:14.190Z,100.00
2022-11-17T08:47:24.978Z,100.00
2022-11-17T08:50:08.332Z,100.00
2022-11-17T08:52:36.813Z,100.00
2022-11-17T08:55:07.365Z,100.00
2022-11-17T08:57:35.566Z,100.00
2022-11-17T09:00:04.205Z,100.00
2022-11-17T09:02:32.271Z,100.00
2022-11-17T09:05:00.409Z,100.00
2022-11-17T09:07:34.559Z,100.00
2022-11-17T09:10:03.252Z,100.00
2022-11-17T09:12:32.751Z,100.00
2022-11-17T09:15:00.752Z,100.00
2022-11-17T09:17:28.826Z,100.00
2022-11-17T09:19:56.957Z,100.00
2022-11-17T09:22:24.991Z,100.00
2022-11-17T09:24:53.105Z,100.00
2022-11-17T09:30:56.078Z,100.00
2022-11-17T09:33:26.110Z,100.00
2022-11-17T09:36:42.172Z,100.00
2022-11-17T09:39:41.336Z,100.00
2022-11-17T09:42:29.426Z,100.00
2022-11-17T09:45:03.643Z,100.00
2022-11-17T09:48:06.997Z,100.00
2022-11-17T09:50:54.085Z,99.64
2022-11-17T09:53:46.771Z,97.34
2022-11-17T09:56:16.021Z,97.33
2022-11-17T09:58:49.904Z,95.78
2022-11-17T10:01:19.011Z,97.07
2022-11-17T10:03:48.921Z,93.99
2022-11-17T10:06:22.029Z,93.57
2022-11-17T10:09:02.339Z,92.58
2022-11-17T10:11:33.085Z,92.71
2022-11-17T10:14:14.587Z,93.11
2022-11-17T10:16:54.564Z,92.90
2022-11-17T10:19:25.145Z,92.58
2022-11-17T10:22:12.596Z,91.73
2022-11-17T10:24:42.547Z,91.16
2022-11-17T10:27:25.623Z,92.27
2022-11-17T10:30:02.237Z,90.46
2022-11-17T10:32:34.335Z,89.30
2022-11-17T10:35:17.582Z,88.91
2022-11-17T10:37:56.684Z,88.35
2022-11-17T10:40:27.669Z,88.02
2022-11-17T10:43:01.386Z,85.65
2022-11-17T10:45:29.912Z,85.59
2022-11-17T10:48:11.631Z,85.67
2022-11-17T10:50:52.124Z,85.82
2022-11-17T10:54:03.559Z,85.50
2022-11-17T10:56:33.316Z,85.76
2022-11-17T10:59:05.373Z,86.35
2022-11-17T11:01:36.281Z,86.50
2022-11-17T11:04:07.267Z,86.59
2022-11-17T11:06:36.830Z,86.27
2022-11-17T11:09:13.041Z,86.36
2022-11-17T11:11:47.997Z,85.02
2022-11-17T11:14:25.750Z,82.04
2022-11-17T11:16:53.816Z,82.52
2022-11-17T11:19:22.417Z,83.18
2022-11-17T11:22:04.025Z,83.68
2022-11-17T11:24:49.916Z,83.22
2022-11-17T11:27:31.174Z,82.70
2022-11-17T11:34:28.664Z,81.59
2022-11-17T11:36:51.723Z,81.07
2022-11-17T11:39:25.601Z,81.75
2022-11-17T11:42:09.438Z,81.75
2022-11-17T11:44:51.276Z,80.01
2022-11-17T11:47:35.005Z,78.89
2022-11-17T11:50:11.327Z,78.91
2022-11-17T11:52:45.439Z,81.33
2022-11-17T11:55:20.753Z,78.89
2022-11-17T11:57:56.699Z,79.51
2022-11-17T12:00:29.281Z,79.61
2022-11-17T12:03:05.724Z,79.37
2022-11-17T12:05:47.252Z,79.22
2022-11-17T12:08:24.439Z,78.95
2022-11-17T12:10:59.140Z,80.17
2022-11-17T12:13:30.468Z,78.19
2022-11-17T12:16:19.453Z,79.63
2022-11-17T12:18:47.605Z,80.70
2022-11-17T12:21:26.852Z,80.05
2022-11-17T12:24:11.607Z,79.39
2022-11-17T12:26:39.970Z,81.74
2022-11-17T12:29:33.128Z,80.29
2022-11-17T12:32:02.985Z,81.51
2022-11-17T12:39:58.429Z,81.61
2022-11-17T12:42:26.692Z,81.71
2022-11-17T12:45:01.689Z,82.79
2022-11-17T12:47:36.572Z,81.18
2022-11-17T12:50:23.360Z,80.98
2022-11-17T12:53:14.920Z,80.23
2022-11-17T12:56:02.408Z,80.83
2022-11-17T12:58:45.995Z,81.32
2022-11-17T13:01:24.133Z,81.53
2022-11-17T13:03:59.167Z,81.25
2022-11-17T13:06:35.364Z,82.88
2022-11-17T13:09:15.156Z,83.04
2022-11-17T13:11:43.307Z,83.26
2022-11-17T13:14:21.563Z,72.47
2022-11-17T13:16:54.909Z,71.51
2022-11-17T13:19:48.266Z,70.08
2022-11-17T13:22:19.262Z,72.84
2022-11-17T13:24:49.399Z,72.61
2022-11-17T13:27:23.541Z,69.09
2022-11-17T13:29:51.763Z,67.96
2022-11-17T13:32:23.947Z,68.10
2022-11-17T13:34:56.632Z,68.93
2022-11-17T13:37:26.544Z,67.71
2022-11-17T13:40:04.420Z,70.18
2022-11-17T13:43:06.135Z,70.72
2022-11-17T13:45:34.616Z,69.64
2022-11-17T13:48:45.023Z,70.38
2022-11-17T13:51:25.913Z,68.44
2022-11-17T13:53:56.564Z,69.43
2022-11-17T13:56:32.613Z,70.23
2022-11-17T13:59:03.653Z,70.31
2022-11-17T14:01:33.347Z,69.89
2022-11-17T14:04:20.340Z,70.68
2022-11-17T14:07:00.825Z,68.35
2022-11-17T14:09:30.886Z,68.33
2022-11-17T14:12:00.011Z,68.18
2022-11-17T14:14:35.749Z,69.02
2022-11-17T14:17:14.551Z,67.12
2022-11-17T14:19:53.295Z,69.76
2022-11-17T14:22:31.702Z,69.02
2022-11-17T14:25:02.051Z,70.68
2022-11-17T14:27:41.264Z,68.97
2022-11-17T14:30:17.504Z,70.97
2022-11-17T14:32:48.579Z,69.83
2022-11-17T14:37:56.589Z,70.59
2022-11-17T14:40:25.404Z,70.65
2022-11-17T14:42:53.503Z,68.98
2022-11-17T14:45:21.502Z,69.73
2022-11-17T14:47:50.190Z,71.17
2022-11-17T14:50:22.041Z,71.80
2022-11-17T14:52:51.825Z,73.62
2022-11-17T14:55:22.005Z,70.35
2022-11-17T14:57:51.716Z,70.81
2022-11-17T15:00:21.335Z,70.10
2022-11-17T15:02:51.479Z,70.44
2022-11-17T15:05:20.975Z,68.84
2022-11-17T15:07:49.434Z,70.11
2022-11-17T15:10:18.311Z,70.47
2022-11-17T15:12:46.416Z,71.74
2022-11-17T15:15:15.408Z,71.72
2022-11-17T15:17:44.558Z,71.75
2022-11-17T15:20:13.556Z,73.04
2022-11-17T15:22:43.807Z,71.38
2022-11-17T15:25:12.255Z,72.08
2022-11-17T15:27:40.255Z,72.01
2022-11-17T15:30:09.624Z,73.21
2022-11-17T15:32:38.100Z,73.41
2022-11-17T15:35:06.748Z,74.47
2022-11-17T15:37:34.822Z,74.61
2022-11-17T15:40:04.377Z,73.78
2022-11-17T15:42:32.596Z,73.76
2022-11-17T15:45:00.605Z,73.87
2022-11-17T15:47:28.621Z,75.00
2022-11-17T15:49:58.665Z,75.33
2022-11-17T15:52:48.852Z,74.10
2022-11-17T15:55:16.151Z,76.01
2022-11-17T15:57:44.235Z,76.59
2022-11-17T16:00:18.723Z,76.03
2022-11-17T16:02:46.844Z,77.02
2022-11-17T16:05:15.025Z,76.07
2022-11-17T16:07:43.151Z,76.67
2022-11-17T16:10:12.863Z,75.37
2022-11-17T16:12:43.056Z,76.74
2022-11-17T16:15:11.704Z,75.74
2022-11-17T16:17:39.679Z,76.82
2022-11-17T16:20:09.187Z,74.77
2022-11-17T16:22:37.304Z,75.37
2022-11-17T16:25:07.294Z,75.78
2022-11-17T16:27:35.334Z,76.40
2022-11-17T16:30:06.049Z,75.76
2022-11-17T16:32:35.570Z,74.96
2022-11-17T16:35:03.668Z,75.36
2022-11-17T16:37:31.809Z,75.96
2022-11-17T16:40:01.472Z,75.09
2022-11-17T16:42:29.516Z,73.48
2022-11-17T16:45:01.051Z,74.54
2022-11-17T16:47:30.520Z,74.88
2022-11-17T16:49:58.644Z,74.59
2022-11-17T16:52:29.839Z,76.92
2022-11-17T16:55:03.262Z,76.90
2022-11-17T16:57:32.823Z,76.51
2022-11-17T17:00:00.878Z,75.62
2022-11-17T17:02:30.448Z,77.87
2022-11-17T17:04:58.525Z,80.46
2022-11-17T17:07:26.700Z,82.59
2022-11-17T17:09:54.841Z,86.15
2022-11-17T17:12:22.882Z,93.22
2022-11-17T17:14:50.873Z,100.00
2022-11-17T17:17:18.921Z,100.00
2022-11-17T17:20:50.807Z,100.00
2022-11-17T17:24:17.257Z,100.00
2022-11-17T17:27:43.912Z,100.00
2022-11-17T17:31:13.424Z,100.00
2022-11-17T17:34:43.804Z,100.00
2022-11-17T17:38:11.705Z,100.00
2022-11-17T17:41:39.740Z,100.00
2022-11-17T17:45:07.393Z,100.00
2022-11-17T17:48:34.376Z,100.00
2022-11-17T17:52:01.289Z,100.00
2022-11-17T17:55:32.560Z,100.00
2022-11-17T17:58:11.045Z,100.00
2022-11-17T18:01:08.732Z,100.00
2022-11-17T18:04:35.403Z,100.00
2022-11-17T18:07:34.684Z,100.00
2022-11-17T18:10:04.180Z,100.00
2022-11-17T18:12:32.245Z,100.00
2022-11-17T18:15:00.282Z,100.00
2022-11-17T18:17:28.363Z,100.00
2022-11-17T18:19:56.401Z,100.00
2022-11-17T18:22:24.392Z,100.00
2022-11-17T18:24:55.954Z,100.00
2022-11-17T18:27:27.600Z,100.00
2022-11-17T18:29:55.614Z,100.00
2022-11-17T18:32:23.887Z,100.00
2022-11-17T18:34:51.909Z,100.00
2022-11-17T18:37:19.936Z,100.00
2022-11-17T18:39:48.612Z,100.00
2022-11-17T18:42:16.651Z,100.00
2022-11-17T18:44:46.075Z,100.00
2022-11-17T18:47:15.316Z,100.00
2022-11-17T18:49:43.295Z,100.00
2022-11-17T18:52:11.639Z,100.00
2022-11-17T18:54:39.773Z,100.00
2022-11-17T18:57:08.423Z,100.00
2022-11-17T18:59:36.419Z,100.00
2022-11-17T19:02:05.810Z,100.00
2022-11-17T19:04:33.849Z,100.00
2022-11-17T19:07:01.926Z,100.00
2022-11-17T19:09:29.947Z,100.00
2022-11-17T19:11:57.947Z,100.00
2022-11-17T19:14:25.956Z,100.00
2022-11-17T19:16:55.449Z,100.00
2022-11-17T19:19:24.840Z,100.00
2022-11-17T19:21:53.048Z,100.00
2022-11-17T19:24:21.918Z,100.00
2022-11-17T19:26:50.124Z,100.00
2022-11-17T19:29:18.266Z,100.00
2022-11-17T19:31:46.953Z,100.00
2022-11-17T19:34:15.328Z,100.00
2022-11-17T19:36:45.692Z,100.00
2022-11-17T19:39:15.219Z,100.00
2022-11-17T19:41:45.177Z,100.00
2022-11-17T19:44:13.429Z,100.00
2022-11-17T19:46:41.525Z,100.00
2022-11-17T19:49:09.730Z,100.00
2022-11-17T19:51:38.437Z,100.00
2022-11-17T19:54:09.350Z,100.00
2022-11-17T19:56:38.498Z,100.00
2022-11-17T19:59:10.988Z,100.00
2022-11-17T20:01:44.082Z,100.00
2022-11-17T20:04:12.108Z,100.00
2022-11-17T20:06:41.080Z,100.00
2022-11-17T20:09:12.909Z,100.00
2022-11-17T20:11:41.644Z,100.00
2022-11-17T20:14:09.979Z,100.00
2022-11-17T20:16:39.121Z,100.00
2022-11-17T20:19:07.504Z,100.00
2022-11-17T20:21:35.511Z,100.00
2022-11-17T20:24:03.658Z,100.00
2022-11-17T20:26:35.276Z,100.00
2022-11-17T20:29:03.332Z,100.00
2022-11-17T20:31:33.552Z,100.00
2022-11-17T20:34:02.963Z,100.00
2022-11-17T20:36:33.193Z,100.00
2022-11-17T20:39:02.906Z,100.00
2022-11-17T20:41:32.606Z,100.00
2022-11-17T20:44:01.977Z,100.00
2022-11-17T20:46:30.453Z,100.00
2022-11-17T20:48:58.529Z,100.00
2022-11-17T20:51:27.051Z,100.00
2022-11-17T20:53:55.061Z,100.00
2022-11-17T20:56:23.124Z,100.00
2022-11-17T20:58:52.570Z,100.00
2022-11-17T21:01:23.188Z,100.00
2022-11-17T21:03:51.536Z,100.00
2022-11-17T21:06:20.289Z,100.00
2022-11-17T21:08:48.309Z,100.00
2022-11-17T21:11:37.989Z,100.00
2022-11-17T21:14:09.244Z,100.00
2022-11-17T21:16:39.006Z,100.00
2022-11-17T21:19:07.190Z,100.00
2022-11-17T21:21:35.313Z,100.00
2022-11-17T21:24:03.558Z,100.00
2022-11-17T21:26:32.375Z,100.00
2022-11-17T21:29:06.215Z,100.00
2022-11-17T21:31:36.781Z,100.00
2022-11-17T21:34:06.654Z,100.00
2022-11-17T21:36:36.712Z,100.00
2022-11-17T21:39:05.421Z,100.00
2022-11-17T21:41:38.151Z,100.00
2022-11-17T21:44:06.966Z,100.00
2022-11-17T21:46:37.213Z,100.00
2022-11-17T21:49:05.557Z,100.00
2022-11-17T21:51:38.466Z,100.00
2022-11-17T21:54:09.923Z,100.00
2022-11-17T21:56:38.190Z,100.00
2022-11-17T21:59:08.681Z,100.00
2022-11-17T22:01:45.173Z,100.00
2022-11-17T22:04:19.327Z,100.00
2022-11-17T22:06:47.440Z,100.00
2022-11-17T22:09:15.810Z,100.00
2022-11-17T22:11:44.089Z,100.00
2022-11-17T22:14:14.320Z,100.00
2022-11-17T22:16:45.631Z,100.00
2022-11-17T22:19:15.241Z,100.00
2022-11-17T22:21:43.892Z,100.00
2022-11-17T22:24:13.590Z,100.00
2022-11-17T22:26:43.532Z,100.00
2022-11-17T22:29:14.624Z,100.00
2022-11-17T22:31:44.674Z,100.00
2022-11-17T22:34:12.684Z,100.00
2022-11-17T22:36:40.790Z,100.00
2022-11-17T22:39:09.380Z,100.00
2022-11-17T22:41:37.657Z,100.00
2022-11-17T22:44:06.540Z,100.00
2022-11-17T22:46:36.123Z,100.00
2022-11-17T22:49:05.510Z,100.00
2022-11-17T22:51:51.191Z,100.00
2022-11-17T22:54:19.187Z,100.00
2022-11-17T22:56:47.401Z,100.00
2022-11-17T22:59:16.587Z,100.00
2022-11-17T23:01:44.843Z,100.00
2022-11-17T23:04:15.633Z,100.00
2022-11-17T23:06:43.754Z,100.00
2022-11-17T23:09:12.267Z,100.00
2022-11-17T23:11:40.503Z,100.00
2022-11-17T23:14:10.840Z,100.00
2022-11-17T23:16:39.083Z,100.00
2022-11-17T23:19:09.600Z,100.00
2022-11-17T23:21:39.088Z,100.00
2022-11-17T23:24:09.480Z,100.00
2022-11-17T23:26:37.529Z,100.00
2022-11-17T23:29:05.695Z,100.00
2022-11-17T23:31:33.708Z,100.00
2022-11-17T23:34:01.825Z,100.00
2022-11-17T23:36:30.350Z,100.00
2022-11-17T23:38:59.852Z,100.00
2022-11-17T23:41:28.893Z,100.00
2022-11-17T23:43:57.020Z,100.00
2022-11-17T23:46:26.662Z,100.00
2022-11-17T23:48:57.050Z,100.00
2022-11-17T23:51:29.957Z,100.00
2022-11-17T23:54:00.943Z,100.00
2022-11-17T23:56:32.329Z,100.00
2022-11-17T23:59:00.330Z,100.00
